Time,TemperatureF,DewpointF,PressureIn,WindDirection,WindDirectionDegrees,WindSpeedMPH,WindSpeedGustMPH,Humidity,HourlyPrecipIn,Conditions,Clouds,dailyrainin,SoftwareType,DateUTC
2013-02-22 00:04:00,21.5,15.0,30.38,East,80,2.0,-999.0,75,-99.99,,,0.01,weatherlink.com 1.10,2013-02-22 05:04:00,
2013-02-22 00:19:00,21.6,15.0,30.37,East,98,7.0,-999.0,75,-99.99,,,0.01,weatherlink.com 1.10,2013-02-22 05:19:00,
2013-02-22 00:34:00,21.6,15.0,30.36,East,101,4.0,-999.0,75,-99.99,,,0.01,weatherlink.com 1.10,2013-02-22 05:34:00,
2013-02-22 00:49:00,21.5,15.0,30.36,ENE,76,2.0,-999.0,75,-99.99,,,0.01,weatherlink.com 1.10,2013-02-22 05:49:00,
2013-02-22 01:04:00,21.5,15.0,30.36,East,86,2.0,-999.0,76,-99.99,,,0.01,weatherlink.com 1.10,2013-02-22 06:04:00,
2013-02-22 01:19:00,21.6,15.0,30.36,East,92,4.0,-999.0,76,-99.99,,,0.01,weatherlink.com 1.10,2013-02-22 06:19:00,
2013-02-22 01:34:00,21.6,15.0,30.36,East,94,1.0,-999.0,76,-99.99,,,0.00,weatherlink.com 1.10,2013-02-22 06:34:00,
2013-02-22 01:49:00,21.6,15.0,30.35,ESE,109,0.0,-999.0,76,-99.99,,,0.00,weatherlink.com 1.10,2013-02-22 06:49:00,
2013-02-22 02:04:00,21.6,15.0,30.36,ENE,76,0.0,-999.0,76,-99.99,,,0.00,weatherlink.com 1.10,2013-02-22 07:04:00,
2013-02-22 02:19:00,21.6,15.0,30.34,ESE,109,0.0,-999.0,76,-99.99,,,0.00,weatherlink.com 1.10,2013-02-22 07:19:00,
2013-02-22 02:34:00,21.5,15.0,30.35,ESE,107,0.0,-999.0,76,-99.99,,,0.00,weatherlink.com 1.10,2013-02-22 07:34:00,
2013-02-22 02:49:00,21.3,15.0,30.34,ESE,105,0.0,-999.0,76,-99.99,,,0.00,weatherlink.com 1.10,2013-02-22 07:49:00,
2013-02-22 03:05:00,21.2,15.0,30.33,ESE,102,0.0,-999.0,77,-99.99,,,0.00,weatherlink.com 1.10,2013-02-22 08:05:00,
2013-02-22 03:20:00,21.0,15.0,30.33,ESE,105,0.0,-999.0,77,-99.99,,,0.00,weatherlink.com 1.10,2013-02-22 08:20:00,
2013-02-22 03:35:00,20.8,15.0,30.33,ESE,115,2.0,-999.0,78,-99.99,,,0.00,weatherlink.com 1.10,2013-02-22 08:35:00,
2013-02-22 03:50:00,20.7,15.0,30.33,East,98,0.0,-999.0,79,-99.99,,,0.00,weatherlink.com 1.10,2013-02-22 08:50:00,
2013-02-22 04:05:00,20.5,15.0,30.34,NE,49,0.0,-999.0,79,-99.99,,,0.00,weatherlink.com 1.10,2013-02-22 09:05:00,
2013-02-22 04:20:00,20.6,15.0,30.37,ENE,64,2.0,-999.0,80,-99.99,,,0.00,weatherlink.com 1.10,2013-02-22 09:20:00,
2013-02-22 04:35:00,20.7,15.0,30.36,ESE,102,5.0,-999.0,80,-99.99,,,0.00,weatherlink.com 1.10,2013-02-22 09:35:00,
2013-02-22 04:50:00,20.9,15.0,30.38,NE,36,0.0,-999.0,79,-99.99,,,0.00,weatherlink.com 1.10,2013-02-22 09:50:00,
2013-02-22 05:05:00,21.0,15.0,30.39,East,85,0.0,-999.0,79,-99.99,,,0.00,weatherlink.com 1.10,2013-02-22 10:05:00,
2013-02-22 05:20:00,20.9,15.0,30.39,NE,43,0.0,-999.0,79,-99.99,,,0.00,weatherlink.com 1.10,2013-02-22 10:20:00,
2013-02-22 05:35:00,21.0,16.0,30.39,ESE,112,0.0,-999.0,80,-99.99,,,0.00,weatherlink.com 1.10,2013-02-22 10:35:00,
2013-02-22 05:50:00,21.0,15.0,30.39,East,86,1.0,-999.0,79,-99.99,,,0.00,weatherlink.com 1.10,2013-02-22 10:50:00,
2013-02-22 06:05:00,20.8,15.0,30.40,ESE,103,0.0,-999.0,79,-99.99,,,0.00,weatherlink.com 1.10,2013-02-22 11:05:00,
2013-02-22 06:20:00,20.3,15.0,30.40,ESE,103,0.0,-999.0,80,-99.99,,,0.00,weatherlink.com 1.10,2013-02-22 11:20:00,
2013-02-22 06:35:00,19.7,15.0,30.39,ESE,103,0.0,-999.0,80,-99.99,,,0.00,weatherlink.com 1.10,2013-02-22 11:35:00,
2013-02-22 06:50:00,19.2,14.0,30.40,ESE,103,0.0,-999.0,81,-99.99,,,0.00,weatherlink.com 1.10,2013-02-22 11:50:00,
2013-02-22 07:05:00,19.0,14.0,30.40,ESE,103,0.0,-999.0,82,-99.99,,,0.00,weatherlink.com 1.10,2013-02-22 12:05:00,
2013-02-22 07:20:00,19.0,15.0,30.41,ESE,103,0.0,-999.0,83,-99.99,,,0.00,weatherlink.com 1.10,2013-02-22 12:20:00,
2013-02-22 07:35:00,20.0,16.0,30.42,ESE,103,0.0,-999.0,84,-99.99,,,0.00,weatherlink.com 1.10,2013-02-22 12:35:00,
2013-02-22 07:50:00,21.1,16.0,30.42,ESE,103,0.0,-999.0,82,-99.99,,,0.00,weatherlink.com 1.10,2013-02-22 12:50:00,
2013-02-22 08:05:00,21.7,16.0,30.43,NNE,32,0.0,-999.0,80,-99.99,,,0.00,weatherlink.com 1.10,2013-02-22 13:05:00,
2013-02-22 08:21:00,22.2,17.0,30.43,NNE,33,0.0,-999.0,80,-99.99,,,0.00,weatherlink.com 1.10,2013-02-22 13:21:00,
2013-02-22 08:36:00,22.5,17.0,30.43,NNE,30,0.0,-999.0,79,-99.99,,,0.00,weatherlink.com 1.10,2013-02-22 13:36:00,
2013-02-22 08:51:00,24.1,18.0,30.43,NNE,30,0.0,-999.0,77,-99.99,,,0.00,weatherlink.com 1.10,2013-02-22 13:51:00,
2013-02-22 09:06:00,25.0,19.0,30.42,ESE,118,0.0,-999.0,77,-99.99,,,0.00,weatherlink.com 1.10,2013-02-22 14:06:00,
2013-02-22 09:22:00,25.5,19.0,30.42,ESE,117,0.0,-999.0,76,-99.99,,,0.00,weatherlink.com 1.10,2013-02-22 14:22:00,
2013-02-22 09:36:00,26.5,20.0,30.42,ESE,122,0.0,-999.0,75,-99.99,,,0.00,weatherlink.com 1.10,2013-02-22 14:36:00,
2013-02-22 09:52:00,26.3,19.0,30.41,ESE,122,0.0,-999.0,75,-99.99,,,0.00,weatherlink.com 1.10,2013-02-22 14:52:00,
2013-02-22 10:06:00,27.7,20.0,30.39,SSE,149,0.0,-999.0,74,-99.99,,,0.00,weatherlink.com 1.10,2013-02-22 15:06:00,
2013-02-22 10:21:00,27.4,19.0,30.38,South,188,1.0,-999.0,72,-99.99,,,0.00,weatherlink.com 1.10,2013-02-22 15:21:00,
2013-02-22 10:36:00,28.9,21.0,30.38,SE,140,0.0,-999.0,72,-99.99,,,0.00,weatherlink.com 1.10,2013-02-22 15:36:00,
2013-02-22 10:51:00,28.7,20.0,30.38,SE,141,0.0,-999.0,71,-99.99,,,0.00,weatherlink.com 1.10,2013-02-22 15:51:00,
2013-02-22 11:06:00,29.0,21.0,30.39,ESE,105,2.0,-999.0,71,-99.99,,,0.00,weatherlink.com 1.10,2013-02-22 16:06:00,
2013-02-22 11:21:00,29.5,21.0,30.39,East,92,0.0,-999.0,71,-99.99,,,0.00,weatherlink.com 1.10,2013-02-22 16:21:00,
2013-02-22 11:36:00,31.3,22.0,30.39,ESE,119,0.0,-999.0,69,-99.99,,,0.00,weatherlink.com 1.10,2013-02-22 16:36:00,
2013-02-22 11:52:00,31.3,21.0,30.39,East,101,0.0,-999.0,67,-99.99,,,0.00,weatherlink.com 1.10,2013-02-22 16:52:00,
2013-02-22 12:06:00,31.7,22.0,30.37,ESE,113,0.0,-999.0,67,-99.99,,,0.00,weatherlink.com 1.10,2013-02-22 17:06:00,
2013-02-22 12:21:00,31.9,22.0,30.36,SSE,148,0.0,-999.0,67,-99.99,,,0.00,weatherlink.com 1.10,2013-02-22 17:21:00,
2013-02-22 12:36:00,32.6,22.0,30.36,SSE,148,0.0,-999.0,66,-99.99,,,0.00,weatherlink.com 1.10,2013-02-22 17:36:00,
2013-02-22 12:52:00,34.8,23.0,30.35,SSE,148,0.0,-999.0,62,-99.99,,,0.00,weatherlink.com 1.10,2013-02-22 17:52:00,
2013-02-22 13:06:00,32.5,21.0,30.34,NE,55,0.0,-999.0,63,-99.99,,,0.00,weatherlink.com 1.10,2013-02-22 18:06:00,
2013-02-22 13:21:00,33.9,23.0,30.33,SSW,199,0.0,-999.0,64,-99.99,,,0.00,weatherlink.com 1.10,2013-02-22 18:21:00,
2013-02-22 13:37:00,33.9,22.0,30.32,SSW,199,0.0,-999.0,62,-99.99,,,0.00,weatherlink.com 1.10,2013-02-22 18:37:00,
2013-02-22 13:52:00,32.4,22.0,30.32,SSW,200,0.0,-999.0,65,-99.99,,,0.00,weatherlink.com 1.10,2013-02-22 18:52:00,
2013-02-22 14:07:00,32.8,22.0,30.32,SSW,200,0.0,-999.0,65,-99.99,,,0.00,weatherlink.com 1.10,2013-02-22 19:07:00,
2013-02-22 14:23:00,33.8,22.0,30.30,SSW,199,0.0,-999.0,63,-99.99,,,0.00,weatherlink.com 1.10,2013-02-22 19:23:00,
2013-02-22 20:04:00,33.2,23.0,30.27,NNW,328,1.0,-999.0,65,-99.99,,,0.00,weatherlink.com 1.10,2013-02-23 01:04:00,
2013-02-22 20:22:00,33.2,23.0,30.27,West,281,0.0,-999.0,65,-99.99,,,0.00,weatherlink.com 1.10,2013-02-23 01:22:00,
2013-02-22 20:38:00,33.1,22.0,30.26,SW,222,0.0,-999.0,65,-99.99,,,0.00,weatherlink.com 1.10,2013-02-23 01:38:00,
2013-02-22 20:53:00,33.0,22.0,30.26,SW,222,0.0,-999.0,65,-99.99,,,0.00,weatherlink.com 1.10,2013-02-23 01:53:00,
2013-02-22 21:08:00,33.1,22.0,30.26,SW,222,0.0,-999.0,65,-99.99,,,0.00,weatherlink.com 1.10,2013-02-23 02:08:00,
2013-02-22 21:23:00,33.2,23.0,30.26,NW,319,3.0,-999.0,65,-99.99,,,0.00,weatherlink.com 1.10,2013-02-23 02:23:00,
2013-02-22 21:38:00,33.2,23.0,30.25,NW,309,5.0,-999.0,65,-99.99,,,0.00,weatherlink.com 1.10,2013-02-23 02:38:00,
2013-02-22 21:53:00,33.4,23.0,30.25,West,260,4.0,-999.0,66,-99.99,,,0.00,weatherlink.com 1.10,2013-02-23 02:53:00,
2013-02-22 22:08:00,33.9,24.0,30.25,NNW,329,9.0,-999.0,66,-99.99,,,0.00,weatherlink.com 1.10,2013-02-23 03:08:00,
2013-02-22 22:23:00,34.2,24.0,30.25,SSW,211,7.0,-999.0,67,-99.99,,,0.00,weatherlink.com 1.10,2013-02-23 03:23:00,
2013-02-22 22:38:00,34.1,25.0,30.24,NW,305,4.0,-999.0,68,-99.99,,,0.00,weatherlink.com 1.10,2013-02-23 03:38:00,
2013-02-22 22:53:00,34.2,25.0,30.24,WNW,284,0.0,-999.0,69,-99.99,,,0.00,weatherlink.com 1.10,2013-02-23 03:53:00,
2013-02-22 23:08:00,34.1,25.0,30.23,NW,304,5.0,-999.0,69,-99.99,,,0.00,weatherlink.com 1.10,2013-02-23 04:08:00,
2013-02-22 23:23:00,34.1,25.0,30.23,NNW,331,0.0,-999.0,69,-99.99,,,0.00,weatherlink.com 1.10,2013-02-23 04:23:00,
2013-02-22 23:38:00,34.1,25.0,30.23,West,263,4.0,-999.0,70,-99.99,,,0.00,weatherlink.com 1.10,2013-02-23 04:38:00,
2013-02-22 23:53:00,34.1,25.0,30.22,NNW,335,10.0,-999.0,70,-99.99,,,0.00,weatherlink.com 1.10,2013-02-23 04:53:00,